LIPE/BLQ METAR and TAF weather

Enter ICAO airport designator
Station Type Date Time Source
LIPE METAR 2019/10/21 01:50 UTC NOAA

LIPE 210150Z VRB01KT CAVOK 16/15 Q1018


Station Type Date Time Source
LIPE Decoded METAR 2019/10/21 01:50 UTC NOAA

Bologna / Borgo Panigale, Italy (LIPE) 44-32N 011-18E 49M
Oct 20, 2019 - 09:50 PM EDT / 2019.10.21 0150 UTC
Wind: Variable at 1 MPH (1 KT):0
Visibility: greater than 7 mile(s):0
Temperature: 60 F (16 C)
Dew Point: 59 F (15 C)
Relative Humidity: 93%
Pressure (altimeter): 30.06 in. Hg (1018 hPa)
ob: LIPE 210150Z VRB01KT CAVOK 16/15 Q1018
cycle: 2

Station Type Date Time Source
LIPE TAF 2019/10/20 18:21 UTC NOAA

TAF LIPE 201700Z 2018/2118 15008KT 7000 FEW040
TEMPO 2103/2106 0800 FG BKN008

Example: see airport list